sensor_id;sensor_type;location;lat;lon;timestamp;temperature;humidity
74364;DHT22;62797;49.740;10.154;2023-07-31T00:00:35;18.30;30.70
74364;DHT22;62797;49.740;10.154;2023-07-31T00:03:00;18.30;31.30
74364;DHT22;62797;49.740;10.154;2023-07-31T00:05:26;18.30;31.50
74364;DHT22;62797;49.740;10.154;2023-07-31T00:07:52;18.30;31.00
74364;DHT22;62797;49.740;10.154;2023-07-31T00:10:19;18.30;31.50
74364;DHT22;62797;49.740;10.154;2023-07-31T00:12:45;18.30;31.60
74364;DHT22;62797;49.740;10.154;2023-07-31T00:15:11;18.40;31.30
74364;DHT22;62797;49.740;10.154;2023-07-31T00:17:38;18.30;31.70
74364;DHT22;62797;49.740;10.154;2023-07-31T00:20:04;18.40;31.70
74364;DHT22;62797;49.740;10.154;2023-07-31T00:22:30;18.40;31.60
74364;DHT22;62797;49.740;10.154;2023-07-31T00:24:56;18.40;31.40
74364;DHT22;62797;49.740;10.154;2023-07-31T00:27:23;18.40;31.90
74364;DHT22;62797;49.740;10.154;2023-07-31T00:29:49;18.50;32.20
74364;DHT22;62797;49.740;10.154;2023-07-31T00:32:15;18.50;31.90
74364;DHT22;62797;49.740;10.154;2023-07-31T00:34:41;18.50;31.70
74364;DHT22;62797;49.740;10.154;2023-07-31T00:37:07;18.50;31.20
74364;DHT22;62797;49.740;10.154;2023-07-31T00:39:34;18.50;31.40
74364;DHT22;62797;49.740;10.154;2023-07-31T00:42:00;18.40;32.20
74364;DHT22;62797;49.740;10.154;2023-07-31T00:44:26;18.50;31.40
74364;DHT22;62797;49.740;10.154;2023-07-31T00:46:52;18.50;32.10
74364;DHT22;62797;49.740;10.154;2023-07-31T00:49:20;18.50;31.60
74364;DHT22;62797;49.740;10.154;2023-07-31T00:51:46;18.50;31.90
74364;DHT22;62797;49.740;10.154;2023-07-31T00:54:12;18.50;31.80
74364;DHT22;62797;49.740;10.154;2023-07-31T00:56:40;18.50;32.20
74364;DHT22;62797;49.740;10.154;2023-07-31T00:59:06;18.50;32.40
74364;DHT22;62797;49.740;10.154;2023-07-31T01:01:32;18.50;32.30
74364;DHT22;62797;49.740;10.154;2023-07-31T01:03:59;18.50;31.60
74364;DHT22;62797;49.740;10.154;2023-07-31T01:06:41;18.40;31.90
74364;DHT22;62797;49.740;10.154;2023-07-31T01:12:04;18.40;32.00
74364;DHT22;62797;49.740;10.154;2023-07-31T01:14:30;18.40;32.00
74364;DHT22;62797;49.740;10.154;2023-07-31T01:16:55;18.50;32.20
74364;DHT22;62797;49.740;10.154;2023-07-31T01:19:24;18.40;31.60
74364;DHT22;62797;49.740;10.154;2023-07-31T01:24:49;18.40;31.70
74364;DHT22;62797;49.740;10.154;2023-07-31T01:27:25;18.40;31.60
74364;DHT22;62797;49.740;10.154;2023-07-31T01:30:11;18.40;32.00
74364;DHT22;62797;49.740;10.154;2023-07-31T01:32:43;18.40;31.60
74364;DHT22;62797;49.740;10.154;2023-07-31T01:35:09;18.40;31.40
74364;DHT22;62797;49.740;10.154;2023-07-31T01:37:35;18.50;31.30
74364;DHT22;62797;49.740;10.154;2023-07-31T01:40:01;18.40;31.50
74364;DHT22;62797;49.740;10.154;2023-07-31T01:42:27;18.40;31.40
74364;DHT22;62797;49.740;10.154;2023-07-31T01:44:52;18.40;31.60
74364;DHT22;62797;49.740;10.154;2023-07-31T01:47:19;18.40;32.20
74364;DHT22;62797;49.740;10.154;2023-07-31T01:49:44;18.40;32.40
74364;DHT22;62797;49.740;10.154;2023-07-31T01:52:10;18.40;32.00
74364;DHT22;62797;49.740;10.154;2023-07-31T01:54:36;18.40;31.50
74364;DHT22;62797;49.740;10.154;2023-07-31T01:57:02;18.30;31.60
74364;DHT22;62797;49.740;10.154;2023-07-31T01:59:28;18.30;32.00
74364;DHT22;62797;49.740;10.154;2023-07-31T02:01:54;18.30;32.30
74364;DHT22;62797;49.740;10.154;2023-07-31T02:04:20;18.30;31.60
74364;DHT22;62797;49.740;10.154;2023-07-31T02:06:45;18.30;31.70
74364;DHT22;62797;49.740;10.154;2023-07-31T02:09:11;18.40;31.50
74364;DHT22;62797;49.740;10.154;2023-07-31T02:11:37;18.40;31.80
74364;DHT22;62797;49.740;10.154;2023-07-31T02:14:03;18.40;32.10
74364;DHT22;62797;49.740;10.154;2023-07-31T02:16:29;18.40;31.50
74364;DHT22;62797;49.740;10.154;2023-07-31T02:18:54;18.40;31.40
74364;DHT22;62797;49.740;10.154;2023-07-31T02:21:20;18.40;31.30
74364;DHT22;62797;49.740;10.154;2023-07-31T02:23:46;18.40;31.60
74364;DHT22;62797;49.740;10.154;2023-07-31T02:26:12;18.40;31.30
74364;DHT22;62797;49.740;10.154;2023-07-31T02:28:37;18.40;31.30
74364;DHT22;62797;49.740;10.154;2023-07-31T02:31:03;18.30;32.00
74364;DHT22;62797;49.740;10.154;2023-07-31T02:33:29;18.20;32.00
74364;DHT22;62797;49.740;10.154;2023-07-31T02:35:55;18.20;32.10
74364;DHT22;62797;49.740;10.154;2023-07-31T02:38:21;18.20;31.70
74364;DHT22;62797;49.740;10.154;2023-07-31T02:40:47;18.20;31.80
74364;DHT22;62797;49.740;10.154;2023-07-31T02:43:13;18.20;32.00
74364;DHT22;62797;49.740;10.154;2023-07-31T02:45:39;18.20;32.20
74364;DHT22;62797;49.740;10.154;2023-07-31T02:48:05;18.20;32.40
74364;DHT22;62797;49.740;10.154;2023-07-31T02:50:32;18.20;31.70
74364;DHT22;62797;49.740;10.154;2023-07-31T02:52:57;18.20;32.30
74364;DHT22;62797;49.740;10.154;2023-07-31T02:55:23;18.10;33.00
74364;DHT22;62797;49.740;10.154;2023-07-31T02:57:49;18.00;33.00
74364;DHT22;62797;49.740;10.154;2023-07-31T03:00:15;18.00;33.00
74364;DHT22;62797;49.740;10.154;2023-07-31T03:02:40;17.90;33.10
74364;DHT22;62797;49.740;10.154;2023-07-31T03:05:06;17.90;33.20
74364;DHT22;62797;49.740;10.154;2023-07-31T03:07:32;17.90;33.90
74364;DHT22;62797;49.740;10.154;2023-07-31T03:09:58;17.80;33.90
74364;DHT22;62797;49.740;10.154;2023-07-31T03:12:24;17.80;34.10
74364;DHT22;62797;49.740;10.154;2023-07-31T03:14:50;17.80;34.00
74364;DHT22;62797;49.740;10.154;2023-07-31T03:17:16;17.90;33.80
74364;DHT22;62797;49.740;10.154;2023-07-31T03:19:41;17.90;33.80
74364;DHT22;62797;49.740;10.154;2023-07-31T03:22:07;17.80;34.30
74364;DHT22;62797;49.740;10.154;2023-07-31T03:24:33;17.80;34.10
74364;DHT22;62797;49.740;10.154;2023-07-31T03:26:59;17.80;34.40
74364;DHT22;62797;49.740;10.154;2023-07-31T03:29:26;17.80;34.40
74364;DHT22;62797;49.740;10.154;2023-07-31T03:31:52;17.80;33.80
74364;DHT22;62797;49.740;10.154;2023-07-31T03:34:18;17.70;34.00
74364;DHT22;62797;49.740;10.154;2023-07-31T03:36:44;17.80;34.50
74364;DHT22;62797;49.740;10.154;2023-07-31T03:39:10;17.80;34.90
74364;DHT22;62797;49.740;10.154;2023-07-31T03:41:35;17.90;33.80
74364;DHT22;62797;49.740;10.154;2023-07-31T03:44:01;17.90;34.10
74364;DHT22;62797;49.740;10.154;2023-07-31T03:46:27;17.90;33.90
74364;DHT22;62797;49.740;10.154;2023-07-31T03:48:53;18.00;34.10
74364;DHT22;62797;49.740;10.154;2023-07-31T03:51:19;17.90;34.70
74364;DHT22;62797;49.740;10.154;2023-07-31T03:53:44;17.90;34.60
74364;DHT22;62797;49.740;10.154;2023-07-31T03:56:11;18.00;35.00
74364;DHT22;62797;49.740;10.154;2023-07-31T03:58:37;18.00;34.70
74364;DHT22;62797;49.740;10.154;2023-07-31T04:01:03;18.00;33.80
74364;DHT22;62797;49.740;10.154;2023-07-31T04:03:29;18.10;33.00
74364;DHT22;62797;49.740;10.154;2023-07-31T04:05:55;18.10;33.10
74364;DHT22;62797;49.740;10.154;2023-07-31T04:08:21;18.20;32.50
74364;DHT22;62797;49.740;10.154;2023-07-31T04:10:47;18.20;32.40
74364;DHT22;62797;49.740;10.154;2023-07-31T04:13:13;18.10;32.40
74364;DHT22;62797;49.740;10.154;2023-07-31T04:15:42;18.10;32.00
74364;DHT22;62797;49.740;10.154;2023-07-31T04:18:08;18.20;32.30
74364;DHT22;62797;49.740;10.154;2023-07-31T04:20:34;18.10;32.40
74364;DHT22;62797;49.740;10.154;2023-07-31T04:22:59;18.10;32.90
74364;DHT22;62797;49.740;10.154;2023-07-31T04:25:25;18.10;32.60
74364;DHT22;62797;49.740;10.154;2023-07-31T04:27:51;18.10;32.40
74364;DHT22;62797;49.740;10.154;2023-07-31T04:30:16;18.20;32.40
74364;DHT22;62797;49.740;10.154;2023-07-31T04:32:42;18.10;32.50
74364;DHT22;62797;49.740;10.154;2023-07-31T04:35:08;18.10;32.20
74364;DHT22;62797;49.740;10.154;2023-07-31T04:37:34;18.10;32.50
74364;DHT22;62797;49.740;10.154;2023-07-31T04:39:59;18.20;31.80
74364;DHT22;62797;49.740;10.154;2023-07-31T04:42:25;18.30;31.50
74364;DHT22;62797;49.740;10.154;2023-07-31T04:44:51;18.30;32.00
74364;DHT22;62797;49.740;10.154;2023-07-31T04:47:18;18.30;32.20
74364;DHT22;62797;49.740;10.154;2023-07-31T04:49:44;18.30;31.40
74364;DHT22;62797;49.740;10.154;2023-07-31T04:52:10;18.40;31.40
74364;DHT22;62797;49.740;10.154;2023-07-31T04:54:36;18.30;31.50
74364;DHT22;62797;49.740;10.154;2023-07-31T04:57:01;18.30;31.50
74364;DHT22;62797;49.740;10.154;2023-07-31T04:59:27;18.30;32.30
74364;DHT22;62797;49.740;10.154;2023-07-31T05:01:53;18.30;31.80
74364;DHT22;62797;49.740;10.154;2023-07-31T05:04:19;18.40;31.10
74364;DHT22;62797;49.740;10.154;2023-07-31T05:06:44;18.30;31.60
74364;DHT22;62797;49.740;10.154;2023-07-31T05:09:10;18.30;32.00
74364;DHT22;62797;49.740;10.154;2023-07-31T05:11:36;18.30;32.20
74364;DHT22;62797;49.740;10.154;2023-07-31T05:14:02;18.40;31.50
74364;DHT22;62797;49.740;10.154;2023-07-31T05:16:27;18.50;31.30
74364;DHT22;62797;49.740;10.154;2023-07-31T05:18:53;18.50;31.90
74364;DHT22;62797;49.740;10.154;2023-07-31T05:21:19;18.50;31.80
74364;DHT22;62797;49.740;10.154;2023-07-31T05:23:44;18.40;33.00
74364;DHT22;62797;49.740;10.154;2023-07-31T05:26:10;18.30;34.70
74364;DHT22;62797;49.740;10.154;2023-07-31T05:28:36;18.30;33.80
74364;DHT22;62797;49.740;10.154;2023-07-31T05:31:05;18.30;34.50
74364;DHT22;62797;49.740;10.154;2023-07-31T05:33:32;18.30;34.00
74364;DHT22;62797;49.740;10.154;2023-07-31T05:35:57;18.30;34.00
74364;DHT22;62797;49.740;10.154;2023-07-31T05:38:23;18.40;33.40
74364;DHT22;62797;49.740;10.154;2023-07-31T05:40:49;18.40;32.80
74364;DHT22;62797;49.740;10.154;2023-07-31T05:43:15;18.40;32.10
74364;DHT22;62797;49.740;10.154;2023-07-31T05:45:44;18.40;31.30
74364;DHT22;62797;49.740;10.154;2023-07-31T05:48:10;18.50;32.00
74364;DHT22;62797;49.740;10.154;2023-07-31T05:50:36;18.60;31.70
74364;DHT22;62797;49.740;10.154;2023-07-31T05:53:07;18.60;31.50
74364;DHT22;62797;49.740;10.154;2023-07-31T05:55:33;18.70;31.10
74364;DHT22;62797;49.740;10.154;2023-07-31T05:58:02;18.80;30.50
74364;DHT22;62797;49.740;10.154;2023-07-31T06:00:28;18.80;30.40
74364;DHT22;62797;49.740;10.154;2023-07-31T06:02:53;18.80;30.60
74364;DHT22;62797;49.740;10.154;2023-07-31T06:05:19;18.80;30.00
74364;DHT22;62797;49.740;10.154;2023-07-31T06:07:46;18.80;30.60
74364;DHT22;62797;49.740;10.154;2023-07-31T06:10:11;18.80;31.10
74364;DHT22;62797;49.740;10.154;2023-07-31T06:12:37;18.90;30.20
74364;DHT22;62797;49.740;10.154;2023-07-31T06:15:03;19.00;30.00
74364;DHT22;62797;49.740;10.154;2023-07-31T06:17:30;19.00;30.00
74364;DHT22;62797;49.740;10.154;2023-07-31T06:19:56;19.00;29.70
74364;DHT22;62797;49.740;10.154;2023-07-31T06:22:22;19.00;29.80
74364;DHT22;62797;49.740;10.154;2023-07-31T06:24:48;19.00;29.80
74364;DHT22;62797;49.740;10.154;2023-07-31T06:27:14;19.10;29.40
74364;DHT22;62797;49.740;10.154;2023-07-31T06:29:40;19.30;28.70
74364;DHT22;62797;49.740;10.154;2023-07-31T06:32:10;19.30;29.00
74364;DHT22;62797;49.740;10.154;2023-07-31T06:34:35;19.30;29.20
74364;DHT22;62797;49.740;10.154;2023-07-31T06:37:01;19.40;28.60
74364;DHT22;62797;49.740;10.154;2023-07-31T06:39:27;19.30;28.50
74364;DHT22;62797;49.740;10.154;2023-07-31T06:41:53;19.30;28.80
74364;DHT22;62797;49.740;10.154;2023-07-31T06:44:19;19.30;28.20
74364;DHT22;62797;49.740;10.154;2023-07-31T06:46:45;19.30;28.20
74364;DHT22;62797;49.740;10.154;2023-07-31T06:49:11;19.30;28.00
74364;DHT22;62797;49.740;10.154;2023-07-31T06:51:37;19.30;28.40
74364;DHT22;62797;49.740;10.154;2023-07-31T06:54:04;19.30;28.70
74364;DHT22;62797;49.740;10.154;2023-07-31T06:56:29;19.30;29.20
74364;DHT22;62797;49.740;10.154;2023-07-31T06:58:56;19.40;28.10
74364;DHT22;62797;49.740;10.154;2023-07-31T07:01:21;19.50;27.60
74364;DHT22;62797;49.740;10.154;2023-07-31T07:03:49;19.50;28.00
74364;DHT22;62797;49.740;10.154;2023-07-31T07:06:19;19.40;28.60
74364;DHT22;62797;49.740;10.154;2023-07-31T07:08:45;19.50;28.90
74364;DHT22;62797;49.740;10.154;2023-07-31T07:11:11;19.50;28.80
74364;DHT22;62797;49.740;10.154;2023-07-31T07:13:36;19.60;28.90
74364;DHT22;62797;49.740;10.154;2023-07-31T07:16:02;19.60;28.80
74364;DHT22;62797;49.740;10.154;2023-07-31T07:18:28;19.70;28.90
74364;DHT22;62797;49.740;10.154;2023-07-31T07:20:54;19.80;28.30
74364;DHT22;62797;49.740;10.154;2023-07-31T07:23:20;19.80;28.20
74364;DHT22;62797;49.740;10.154;2023-07-31T07:25:49;19.80;28.60
74364;DHT22;62797;49.740;10.154;2023-07-31T07:28:15;19.80;28.70
74364;DHT22;62797;49.740;10.154;2023-07-31T07:30:41;19.90;28.80
74364;DHT22;62797;49.740;10.154;2023-07-31T07:33:07;20.00;29.30
74364;DHT22;62797;49.740;10.154;2023-07-31T07:35:34;20.20;27.80
74364;DHT22;62797;49.740;10.154;2023-07-31T07:38:00;20.20;27.10
74364;DHT22;62797;49.740;10.154;2023-07-31T07:40:26;20.20;27.00
74364;DHT22;62797;49.740;10.154;2023-07-31T07:42:52;20.10;26.90
74364;DHT22;62797;49.740;10.154;2023-07-31T07:45:17;20.10;27.90
74364;DHT22;62797;49.740;10.154;2023-07-31T07:47:43;20.10;27.60
74364;DHT22;62797;49.740;10.154;2023-07-31T07:50:09;20.10;27.80
74364;DHT22;62797;49.740;10.154;2023-07-31T07:52:35;20.20;27.10
74364;DHT22;62797;49.740;10.154;2023-07-31T07:55:01;20.10;28.30
74364;DHT22;62797;49.740;10.154;2023-07-31T07:57:27;20.10;28.50
74364;DHT22;62797;49.740;10.154;2023-07-31T07:59:53;20.10;28.00
74364;DHT22;62797;49.740;10.154;2023-07-31T08:02:19;20.20;28.30
74364;DHT22;62797;49.740;10.154;2023-07-31T08:04:44;20.30;28.60
74364;DHT22;62797;49.740;10.154;2023-07-31T08:07:11;20.40;28.50
74364;DHT22;62797;49.740;10.154;2023-07-31T08:09:38;20.60;27.40
74364;DHT22;62797;49.740;10.154;2023-07-31T08:12:05;20.70;27.20
74364;DHT22;62797;49.740;10.154;2023-07-31T08:14:31;20.80;26.60
74364;DHT22;62797;49.740;10.154;2023-07-31T08:16:56;20.90;27.10
74364;DHT22;62797;49.740;10.154;2023-07-31T08:19:22;21.00;26.20
74364;DHT22;62797;49.740;10.154;2023-07-31T08:21:48;20.90;26.40
74364;DHT22;62797;49.740;10.154;2023-07-31T08:24:14;20.90;27.40
74364;DHT22;62797;49.740;10.154;2023-07-31T08:26:39;20.90;27.60
74364;DHT22;62797;49.740;10.154;2023-07-31T08:29:05;20.90;27.60
74364;DHT22;62797;49.740;10.154;2023-07-31T08:31:31;20.90;27.30
74364;DHT22;62797;49.740;10.154;2023-07-31T08:33:57;21.00;26.40
74364;DHT22;62797;49.740;10.154;2023-07-31T08:36:23;21.10;27.50
74364;DHT22;62797;49.740;10.154;2023-07-31T08:38:49;21.20;27.70
74364;DHT22;62797;49.740;10.154;2023-07-31T08:41:16;21.20;26.70
74364;DHT22;62797;49.740;10.154;2023-07-31T08:43:46;21.20;27.00
74364;DHT22;62797;49.740;10.154;2023-07-31T08:46:12;21.20;25.90
74364;DHT22;62797;49.740;10.154;2023-07-31T08:48:42;21.10;26.00
74364;DHT22;62797;49.740;10.154;2023-07-31T08:51:08;21.30;25.90
74364;DHT22;62797;49.740;10.154;2023-07-31T08:53:34;21.20;26.00
74364;DHT22;62797;49.740;10.154;2023-07-31T08:56:00;21.20;26.60
74364;DHT22;62797;49.740;10.154;2023-07-31T08:58:31;21.20;27.00
74364;DHT22;62797;49.740;10.154;2023-07-31T09:00:58;21.30;26.90
74364;DHT22;62797;49.740;10.154;2023-07-31T09:03:26;21.40;26.40
74364;DHT22;62797;49.740;10.154;2023-07-31T09:05:52;21.50;27.10
74364;DHT22;62797;49.740;10.154;2023-07-31T09:08:21;21.60;25.20
74364;DHT22;62797;49.740;10.154;2023-07-31T09:10:47;21.70;26.00
74364;DHT22;62797;49.740;10.154;2023-07-31T09:13:13;21.80;24.70
74364;DHT22;62797;49.740;10.154;2023-07-31T09:15:40;21.70;25.40
74364;DHT22;62797;49.740;10.154;2023-07-31T09:18:08;21.80;25.20
74364;DHT22;62797;49.740;10.154;2023-07-31T09:20:34;21.90;25.10
74364;DHT22;62797;49.740;10.154;2023-07-31T09:23:20;22.00;24.70
74364;DHT22;62797;49.740;10.154;2023-07-31T09:25:47;22.10;25.10
74364;DHT22;62797;49.740;10.154;2023-07-31T09:28:12;22.00;24.80
74364;DHT22;62797;49.740;10.154;2023-07-31T09:30:45;22.10;24.30
74364;DHT22;62797;49.740;10.154;2023-07-31T09:33:12;22.10;24.50
74364;DHT22;62797;49.740;10.154;2023-07-31T09:35:39;22.10;24.20
74364;DHT22;62797;49.740;10.154;2023-07-31T09:38:11;22.20;23.50
74364;DHT22;62797;49.740;10.154;2023-07-31T09:40:41;22.00;24.50
74364;DHT22;62797;49.740;10.154;2023-07-31T09:43:10;22.00;24.00
74364;DHT22;62797;49.740;10.154;2023-07-31T09:45:38;22.10;25.20
74364;DHT22;62797;49.740;10.154;2023-07-31T09:48:07;22.10;24.60
74364;DHT22;62797;49.740;10.154;2023-07-31T09:50:41;22.30;24.10
74364;DHT22;62797;49.740;10.154;2023-07-31T09:53:08;22.40;24.20
74364;DHT22;62797;49.740;10.154;2023-07-31T09:55:34;22.60;23.20
74364;DHT22;62797;49.740;10.154;2023-07-31T09:58:05;22.60;22.40
74364;DHT22;62797;49.740;10.154;2023-07-31T10:00:31;22.60;23.50
74364;DHT22;62797;49.740;10.154;2023-07-31T10:02:58;22.80;23.10
74364;DHT22;62797;49.740;10.154;2023-07-31T10:05:25;22.90;22.00
74364;DHT22;62797;49.740;10.154;2023-07-31T10:07:57;22.70;22.90
74364;DHT22;62797;49.740;10.154;2023-07-31T10:10:23;22.80;23.30
74364;DHT22;62797;49.740;10.154;2023-07-31T10:12:49;22.80;23.50
74364;DHT22;62797;49.740;10.154;2023-07-31T10:15:16;22.80;22.60
74364;DHT22;62797;49.740;10.154;2023-07-31T10:17:43;22.80;22.50
74364;DHT22;62797;49.740;10.154;2023-07-31T10:20:09;22.80;22.80
74364;DHT22;62797;49.740;10.154;2023-07-31T10:22:35;22.80;21.80
74364;DHT22;62797;49.740;10.154;2023-07-31T10:25:01;22.70;22.40
74364;DHT22;62797;49.740;10.154;2023-07-31T10:27:27;22.50;23.10
74364;DHT22;62797;49.740;10.154;2023-07-31T10:29:55;22.50;23.70
74364;DHT22;62797;49.740;10.154;2023-07-31T10:32:22;22.50;24.10
74364;DHT22;62797;49.740;10.154;2023-07-31T10:34:50;22.60;24.60
74364;DHT22;62797;49.740;10.154;2023-07-31T10:40:11;22.50;23.40
74364;DHT22;62797;49.740;10.154;2023-07-31T10:42:52;22.50;23.60
74364;DHT22;62797;49.740;10.154;2023-07-31T10:45:44;22.30;23.60
74364;DHT22;62797;49.740;10.154;2023-07-31T10:48:17;22.40;22.90
74364;DHT22;62797;49.740;10.154;2023-07-31T10:50:50;22.40;23.00
74364;DHT22;62797;49.740;10.154;2023-07-31T10:53:26;22.10;23.20
74364;DHT22;62797;49.740;10.154;2023-07-31T10:55:53;22.20;23.80
74364;DHT22;62797;49.740;10.154;2023-07-31T10:58:20;22.20;23.70
74364;DHT22;62797;49.740;10.154;2023-07-31T11:00:49;22.30;24.70
74364;DHT22;62797;49.740;10.154;2023-07-31T11:03:19;22.50;23.60
74364;DHT22;62797;49.740;10.154;2023-07-31T11:05:52;22.60;24.10
74364;DHT22;62797;49.740;10.154;2023-07-31T11:08:26;22.70;22.80
74364;DHT22;62797;49.740;10.154;2023-07-31T11:11:12;22.80;23.20
74364;DHT22;62797;49.740;10.154;2023-07-31T11:13:49;22.70;22.10
74364;DHT22;62797;49.740;10.154;2023-07-31T11:16:17;22.60;23.10
74364;DHT22;62797;49.740;10.154;2023-07-31T11:18:44;22.40;23.70
74364;DHT22;62797;49.740;10.154;2023-07-31T11:21:21;22.50;24.40
74364;DHT22;62797;49.740;10.154;2023-07-31T11:23:56;22.60;23.90
74364;DHT22;62797;49.740;10.154;2023-07-31T11:26:23;22.70;22.20
74364;DHT22;62797;49.740;10.154;2023-07-31T11:28:50;22.60;22.70
74364;DHT22;62797;49.740;10.154;2023-07-31T11:31:17;22.50;23.40
74364;DHT22;62797;49.740;10.154;2023-07-31T11:33:43;22.50;23.20
74364;DHT22;62797;49.740;10.154;2023-07-31T11:36:16;22.70;23.00
74364;DHT22;62797;49.740;10.154;2023-07-31T12:30:08;23.90;20.00
74364;DHT22;62797;49.740;10.154;2023-07-31T12:32:51;23.90;19.00
74364;DHT22;62797;49.740;10.154;2023-07-31T12:35:16;23.70;19.30
74364;DHT22;62797;49.740;10.154;2023-07-31T12:37:42;23.80;19.40
74364;DHT22;62797;49.740;10.154;2023-07-31T12:40:08;23.70;20.20
74364;DHT22;62797;49.740;10.154;2023-07-31T12:42:34;23.70;19.70
74364;DHT22;62797;49.740;10.154;2023-07-31T12:45:00;23.70;19.70
74364;DHT22;62797;49.740;10.154;2023-07-31T12:47:25;23.60;20.50
74364;DHT22;62797;49.740;10.154;2023-07-31T12:49:51;23.70;20.70
74364;DHT22;62797;49.740;10.154;2023-07-31T12:52:17;23.70;20.80
74364;DHT22;62797;49.740;10.154;2023-07-31T12:54:43;23.90;20.20
74364;DHT22;62797;49.740;10.154;2023-07-31T12:57:08;23.90;19.70
74364;DHT22;62797;49.740;10.154;2023-07-31T12:59:34;24.00;18.90
74364;DHT22;62797;49.740;10.154;2023-07-31T13:02:00;24.00;19.00
74364;DHT22;62797;49.740;10.154;2023-07-31T13:04:26;24.10;19.30
74364;DHT22;62797;49.740;10.154;2023-07-31T13:06:51;24.20;18.30
74364;DHT22;62797;49.740;10.154;2023-07-31T13:09:17;24.20;18.40
74364;DHT22;62797;49.740;10.154;2023-07-31T13:11:43;24.20;18.30
74364;DHT22;62797;49.740;10.154;2023-07-31T13:14:08;24.10;17.70
74364;DHT22;62797;49.740;10.154;2023-07-31T13:16:34;24.00;18.00
74364;DHT22;62797;49.740;10.154;2023-07-31T13:19:01;24.10;18.40
74364;DHT22;62797;49.740;10.154;2023-07-31T13:21:27;24.00;18.90
74364;DHT22;62797;49.740;10.154;2023-07-31T13:23:52;24.00;18.70
74364;DHT22;62797;49.740;10.154;2023-07-31T13:26:18;23.90;18.70
74364;DHT22;62797;49.740;10.154;2023-07-31T13:28:43;23.90;19.90
74364;DHT22;62797;49.740;10.154;2023-07-31T13:31:09;23.90;20.50
74364;DHT22;62797;49.740;10.154;2023-07-31T13:33:36;23.90;19.40
74364;DHT22;62797;49.740;10.154;2023-07-31T13:36:02;23.90;19.50
74364;DHT22;62797;49.740;10.154;2023-07-31T13:38:28;23.80;18.80
74364;DHT22;62797;49.740;10.154;2023-07-31T13:40:53;23.80;19.20
74364;DHT22;62797;49.740;10.154;2023-07-31T13:43:19;23.70;19.50
74364;DHT22;62797;49.740;10.154;2023-07-31T13:45:44;23.60;20.40
74364;DHT22;62797;49.740;10.154;2023-07-31T13:48:10;23.60;20.80
74364;DHT22;62797;49.740;10.154;2023-07-31T13:50:35;23.50;19.30
74364;DHT22;62797;49.740;10.154;2023-07-31T13:53:01;23.50;19.20
74364;DHT22;62797;49.740;10.154;2023-07-31T13:55:27;23.40;19.90
74364;DHT22;62797;49.740;10.154;2023-07-31T13:57:52;23.50;20.10
74364;DHT22;62797;49.740;10.154;2023-07-31T14:00:18;23.60;20.00
74364;DHT22;62797;49.740;10.154;2023-07-31T14:02:44;23.60;19.60
74364;DHT22;62797;49.740;10.154;2023-07-31T14:05:12;23.50;20.00
74364;DHT22;62797;49.740;10.154;2023-07-31T14:07:38;23.60;19.50
74364;DHT22;62797;49.740;10.154;2023-07-31T14:10:04;23.40;20.00
74364;DHT22;62797;49.740;10.154;2023-07-31T14:12:30;23.40;19.90
74364;DHT22;62797;49.740;10.154;2023-07-31T14:14:56;23.40;19.50
74364;DHT22;62797;49.740;10.154;2023-07-31T14:17:21;23.50;19.90
74364;DHT22;62797;49.740;10.154;2023-07-31T14:19:47;23.50;19.90
74364;DHT22;62797;49.740;10.154;2023-07-31T14:22:13;23.40;20.80
74364;DHT22;62797;49.740;10.154;2023-07-31T14:24:38;23.30;21.30
74364;DHT22;62797;49.740;10.154;2023-07-31T14:27:04;23.30;19.90
74364;DHT22;62797;49.740;10.154;2023-07-31T14:29:30;23.20;20.70
74364;DHT22;62797;49.740;10.154;2023-07-31T14:31:56;23.20;20.50
74364;DHT22;62797;49.740;10.154;2023-07-31T14:34:21;23.10;21.00
74364;DHT22;62797;49.740;10.154;2023-07-31T14:36:47;23.10;22.00
74364;DHT22;62797;49.740;10.154;2023-07-31T14:39:15;23.10;20.90
74364;DHT22;62797;49.740;10.154;2023-07-31T14:41:42;23.20;20.90
74364;DHT22;62797;49.740;10.154;2023-07-31T14:44:07;23.20;20.90
74364;DHT22;62797;49.740;10.154;2023-07-31T14:46:33;23.20;20.90
74364;DHT22;62797;49.740;10.154;2023-07-31T14:49:01;23.30;20.40
74364;DHT22;62797;49.740;10.154;2023-07-31T14:51:26;23.40;20.90
74364;DHT22;62797;49.740;10.154;2023-07-31T14:53:52;23.40;20.90
74364;DHT22;62797;49.740;10.154;2023-07-31T14:56:18;23.50;20.80
74364;DHT22;62797;49.740;10.154;2023-07-31T14:58:43;23.40;21.00
74364;DHT22;62797;49.740;10.154;2023-07-31T15:01:09;23.40;20.60
74364;DHT22;62797;49.740;10.154;2023-07-31T15:03:34;23.40;21.00
74364;DHT22;62797;49.740;10.154;2023-07-31T15:06:00;23.20;21.40
74364;DHT22;62797;49.740;10.154;2023-07-31T15:08:26;23.20;22.10
74364;DHT22;62797;49.740;10.154;2023-07-31T15:10:51;23.20;22.00
74364;DHT22;62797;49.740;10.154;2023-07-31T15:13:23;23.10;22.10
74364;DHT22;62797;49.740;10.154;2023-07-31T15:15:49;23.00;21.90
74364;DHT22;62797;49.740;10.154;2023-07-31T15:18:14;23.10;21.50
74364;DHT22;62797;49.740;10.154;2023-07-31T15:20:40;23.10;21.60
74364;DHT22;62797;49.740;10.154;2023-07-31T15:23:05;23.00;22.10
74364;DHT22;62797;49.740;10.154;2023-07-31T15:25:31;22.90;22.60
74364;DHT22;62797;49.740;10.154;2023-07-31T15:27:56;22.90;22.50
74364;DHT22;62797;49.740;10.154;2023-07-31T15:30:24;22.90;22.90
74364;DHT22;62797;49.740;10.154;2023-07-31T15:32:50;22.90;22.10
74364;DHT22;62797;49.740;10.154;2023-07-31T15:35:16;23.10;22.40
74364;DHT22;62797;49.740;10.154;2023-07-31T15:37:46;23.10;22.70
74364;DHT22;62797;49.740;10.154;2023-07-31T15:40:12;23.20;22.70
74364;DHT22;62797;49.740;10.154;2023-07-31T15:42:40;23.30;22.20
74364;DHT22;62797;49.740;10.154;2023-07-31T15:45:08;23.40;21.80
74364;DHT22;62797;49.740;10.154;2023-07-31T15:47:34;23.40;21.40
74364;DHT22;62797;49.740;10.154;2023-07-31T15:50:00;23.30;22.40
74364;DHT22;62797;49.740;10.154;2023-07-31T15:52:25;23.30;22.20
74364;DHT22;62797;49.740;10.154;2023-07-31T15:54:51;23.30;21.80
74364;DHT22;62797;49.740;10.154;2023-07-31T15:57:16;23.10;22.10
74364;DHT22;62797;49.740;10.154;2023-07-31T15:59:42;23.10;22.60
74364;DHT22;62797;49.740;10.154;2023-07-31T16:02:12;23.10;21.90
74364;DHT22;62797;49.740;10.154;2023-07-31T16:04:39;23.00;22.60
74364;DHT22;62797;49.740;10.154;2023-07-31T16:07:05;22.90;23.00
74364;DHT22;62797;49.740;10.154;2023-07-31T16:09:31;23.00;22.30
74364;DHT22;62797;49.740;10.154;2023-07-31T16:11:57;23.00;22.30